createdAt,value
2022-12-18T00:00:47.694Z,81.63
2022-12-18T00:03:39.241Z,81.73
2022-12-18T00:06:10.246Z,81.71
2022-12-18T00:08:39.096Z,81.55
2022-12-18T00:11:10.281Z,82.02
2022-12-18T00:13:39.806Z,81.67
2022-12-18T00:16:13.108Z,81.83
2022-12-18T00:18:43.480Z,81.48
2022-12-18T00:21:16.900Z,81.81
2022-12-18T00:23:47.945Z,81.77
2022-12-18T00:26:21.497Z,81.40
2022-12-18T00:28:52.871Z,81.79
2022-12-18T00:31:25.087Z,81.77
2022-12-18T00:33:56.885Z,81.65
2022-12-18T00:36:27.914Z,81.76
2022-12-18T00:38:59.227Z,81.41
2022-12-18T00:41:47.304Z,81.57
2022-12-18T00:44:20.446Z,81.77
2022-12-18T00:46:53.424Z,81.46
2022-12-18T00:49:22.948Z,81.74
2022-12-18T00:51:52.698Z,81.73
2022-12-18T00:54:21.639Z,81.97
2022-12-18T00:56:50.375Z,81.97
2022-12-18T00:59:20.335Z,81.84
2022-12-18T01:01:51.563Z,81.82
2022-12-18T01:04:23.012Z,81.92
2022-12-18T01:06:52.159Z,81.93
2022-12-18T01:09:21.754Z,81.72
2022-12-18T01:11:50.847Z,81.73
2022-12-18T01:14:19.864Z,81.93
2022-12-18T01:16:53.352Z,81.88
2022-12-18T01:19:22.429Z,81.60
2022-12-18T01:21:51.627Z,81.80
2022-12-18T01:24:20.631Z,81.60
2022-12-18T01:26:50.389Z,81.53
2022-12-18T01:29:19.735Z,81.85
2022-12-18T01:31:55.563Z,81.96
2022-12-18T01:34:27.098Z,81.74
2022-12-18T01:36:56.291Z,81.50
2022-12-18T01:39:25.393Z,81.98
2022-12-18T01:42:03.653Z,81.72
2022-12-18T01:45:11.017Z,81.63
2022-12-18T01:47:44.761Z,81.50
2022-12-18T01:50:19.368Z,81.71
2022-12-18T01:52:51.125Z,81.78
2022-12-18T01:55:22.950Z,81.64
2022-12-18T01:57:56.101Z,81.63
2022-12-18T02:00:26.724Z,81.58
2022-12-18T02:02:57.024Z,81.52
2022-12-18T02:05:36.154Z,81.72
2022-12-18T02:08:17.283Z,81.86
2022-12-18T02:10:54.734Z,81.83
2022-12-18T02:13:33.403Z,81.76
2022-12-18T02:16:14.586Z,81.57
2022-12-18T02:18:49.951Z,81.75
2022-12-18T02:21:26.014Z,81.77
2022-12-18T02:24:05.374Z,81.89
2022-12-18T02:26:39.794Z,81.60
2022-12-18T02:29:14.109Z,81.87
2022-12-18T02:31:51.984Z,81.84
2022-12-18T02:34:26.416Z,81.79
2022-12-18T02:37:00.104Z,81.60
2022-12-18T02:39:33.154Z,81.81
2022-12-18T02:42:08.410Z,81.85
2022-12-18T02:44:44.360Z,81.61
2022-12-18T02:47:16.077Z,81.77
2022-12-18T02:49:54.678Z,81.80
2022-12-18T02:52:33.398Z,81.95
2022-12-18T02:55:16.963Z,81.81
2022-12-18T02:57:54.405Z,81.86
2022-12-18T03:00:32.433Z,81.65
2022-12-18T03:03:12.634Z,81.90
2022-12-18T03:05:51.060Z,81.88
2022-12-18T03:08:24.053Z,81.71
2022-12-18T03:10:58.668Z,81.82
2022-12-18T03:13:32.427Z,81.49
2022-12-18T03:16:03.327Z,81.99
2022-12-18T03:18:38.657Z,81.54
2022-12-18T03:21:16.124Z,81.72
2022-12-18T03:23:49.410Z,81.51
2022-12-18T03:26:23.506Z,81.88
2022-12-18T03:28:58.764Z,81.83
2022-12-18T03:31:32.692Z,81.83
2022-12-18T03:34:11.567Z,82.05
2022-12-18T03:36:44.966Z,81.93
2022-12-18T03:39:15.733Z,81.78
2022-12-18T03:41:53.843Z,81.79
2022-12-18T03:44:34.866Z,82.00
2022-12-18T03:47:09.131Z,81.69
2022-12-18T03:49:47.258Z,81.82
2022-12-18T03:52:22.522Z,81.83
2022-12-18T03:54:53.353Z,81.73
2022-12-18T03:57:26.028Z,81.70
2022-12-18T04:00:00.708Z,81.86
2022-12-18T04:02:47.275Z,81.71
2022-12-18T04:05:19.355Z,81.74
2022-12-18T04:07:50.806Z,81.60
2022-12-18T04:10:23.337Z,81.82
2022-12-18T04:12:58.160Z,81.58
2022-12-18T04:15:27.707Z,81.91
2022-12-18T04:17:57.916Z,81.38
2022-12-18T04:20:31.011Z,81.53
2022-12-18T04:23:00.887Z,81.82
2022-12-18T04:25:30.940Z,81.27
2022-12-18T04:28:14.447Z,81.35
2022-12-18T04:30:43.796Z,81.63
2022-12-18T04:33:15.192Z,81.36
2022-12-18T04:35:47.160Z,81.08
2022-12-18T04:38:17.204Z,81.51
2022-12-18T04:40:47.393Z,81.51
2022-12-18T04:43:23.834Z,81.42
2022-12-18T04:46:23.244Z,81.23
2022-12-18T04:49:07.562Z,81.16
2022-12-18T04:51:38.440Z,81.25
2022-12-18T04:54:07.726Z,81.02
2022-12-18T04:56:37.101Z,81.04
2022-12-18T04:59:08.415Z,80.84
2022-12-18T05:01:43.033Z,80.91
2022-12-18T05:04:12.956Z,81.24
2022-12-18T05:06:41.962Z,81.28
2022-12-18T05:09:11.675Z,80.62
2022-12-18T05:11:43.635Z,80.60
2022-12-18T05:14:13.734Z,80.70
2022-12-18T05:16:45.944Z,80.93
2022-12-18T05:19:15.260Z,80.82
2022-12-18T05:21:44.522Z,81.10
2022-12-18T05:24:15.009Z,80.90
2022-12-18T05:26:46.514Z,80.83
2022-12-18T05:29:15.505Z,81.33
2022-12-18T05:31:45.190Z,81.09
2022-12-18T05:34:14.534Z,80.93
2022-12-18T05:36:45.016Z,81.41
2022-12-18T05:39:19.349Z,80.94
2022-12-18T05:41:51.659Z,81.12
2022-12-18T05:44:20.581Z,80.92
2022-12-18T05:46:49.713Z,81.23
2022-12-18T05:49:18.778Z,81.34
2022-12-18T05:51:47.735Z,80.85
2022-12-18T05:54:16.680Z,80.80
2022-12-18T05:56:48.756Z,81.34
2022-12-18T05:59:18.452Z,81.35
2022-12-18T06:01:48.000Z,80.99
2022-12-18T06:04:18.144Z,81.55
2022-12-18T06:06:46.956Z,81.32
2022-12-18T06:09:15.911Z,81.12
2022-12-18T06:11:44.980Z,81.42
2022-12-18T06:14:14.011Z,81.89
2022-12-18T06:16:45.690Z,81.70
2022-12-18T06:19:17.451Z,81.45
2022-12-18T06:21:49.770Z,81.70
2022-12-18T06:24:18.874Z,81.80
2022-12-18T06:26:47.755Z,81.84
2022-12-18T06:29:16.661Z,81.56
2022-12-18T06:31:45.563Z,81.54
2022-12-18T06:34:14.731Z,81.63
2022-12-18T06:36:45.883Z,81.55
2022-12-18T06:39:14.706Z,81.41
2022-12-18T06:41:44.272Z,81.32
2022-12-18T06:44:18.294Z,81.90
2022-12-18T06:46:46.737Z,81.45
2022-12-18T06:49:17.092Z,81.75
2022-12-18T06:51:45.994Z,81.72
2022-12-18T06:54:16.185Z,81.90
2022-12-18T06:56:46.845Z,81.84
2022-12-18T06:59:15.835Z,81.66
2022-12-18T07:01:46.827Z,81.70
2022-12-18T07:04:16.261Z,81.69
2022-12-18T07:06:45.387Z,81.43
2022-12-18T07:09:16.396Z,81.60
2022-12-18T07:11:45.684Z,81.44
2022-12-18T07:14:14.577Z,81.69
2022-12-18T07:16:45.486Z,81.64
2022-12-18T07:19:14.823Z,81.70
2022-12-18T07:21:44.990Z,81.49
2022-12-18T07:24:16.495Z,81.61
2022-12-18T07:26:47.272Z,81.63
2022-12-18T07:29:20.424Z,81.51
2022-12-18T07:31:51.532Z,81.54
2022-12-18T07:34:20.423Z,81.78
2022-12-18T07:36:49.263Z,81.54
2022-12-18T07:39:18.236Z,81.90
2022-12-18T07:42:07.287Z,81.63
2022-12-18T07:44:37.802Z,81.32
2022-12-18T07:47:11.781Z,81.62
2022-12-18T07:49:41.256Z,81.44
2022-12-18T07:52:11.386Z,81.71
2022-12-18T07:54:42.930Z,81.64
2022-12-18T07:57:41.894Z,81.41
2022-12-18T08:00:08.460Z,81.84
2022-12-18T08:02:41.503Z,81.76
2022-12-18T08:05:11.818Z,81.71
2022-12-18T08:07:40.664Z,81.64
2022-12-18T08:10:11.645Z,81.79
2022-12-18T08:12:40.639Z,81.66
2022-12-18T08:15:13.047Z,81.83
2022-12-18T08:17:45.572Z,81.61
2022-12-18T08:20:15.388Z,81.75
2022-12-18T08:22:44.213Z,81.46
2022-12-18T08:25:14.525Z,81.52
2022-12-18T08:27:43.685Z,81.52
2022-12-18T08:30:15.204Z,81.44
2022-12-18T08:32:44.697Z,81.48
2022-12-18T08:35:18.649Z,81.56
2022-12-18T08:37:48.614Z,81.41
2022-12-18T08:40:17.771Z,81.62
2022-12-18T08:43:05.028Z,81.47
2022-12-18T08:45:34.732Z,81.46
2022-12-18T08:48:05.923Z,81.24
2022-12-18T08:50:41.251Z,81.17
2022-12-18T08:53:13.748Z,81.10
2022-12-18T08:55:47.181Z,81.35
2022-12-18T08:58:19.284Z,81.23
2022-12-18T09:00:48.671Z,81.61
2022-12-18T09:03:19.270Z,81.63
2022-12-18T09:05:48.185Z,81.59
2022-12-18T09:08:16.891Z,81.29
2022-12-18T09:10:47.032Z,81.41
2022-12-18T09:13:16.755Z,81.20
2022-12-18T09:15:50.664Z,81.30
2022-12-18T09:18:26.007Z,81.28
2022-12-18T09:20:55.005Z,81.42
2022-12-18T09:23:24.077Z,81.47
2022-12-18T09:26:00.783Z,81.42
2022-12-18T09:28:29.763Z,81.40
2022-12-18T09:30:58.771Z,81.43
2022-12-18T09:33:27.763Z,81.48
2022-12-18T09:35:57.082Z,81.51
2022-12-18T09:38:25.800Z,81.60
2022-12-18T09:40:59.551Z,81.38
2022-12-18T09:43:37.331Z,81.31
2022-12-18T09:46:18.861Z,81.33
2022-12-18T09:48:52.690Z,81.31
2022-12-18T09:51:28.536Z,81.20
2022-12-18T09:54:01.223Z,81.01
2022-12-18T09:56:32.661Z,81.11
2022-12-18T09:59:03.283Z,81.47
2022-12-18T10:01:44.130Z,81.11
2022-12-18T10:04:14.744Z,81.23
2022-12-18T10:06:54.506Z,81.26
2022-12-18T10:09:31.810Z,81.17
2022-12-18T10:12:09.810Z,81.25
2022-12-18T10:14:51.942Z,80.91
2022-12-18T10:17:28.166Z,80.88
2022-12-18T10:20:03.714Z,80.79
2022-12-18T10:22:53.802Z,80.81
2022-12-18T10:25:30.296Z,81.06
2022-12-18T10:28:08.515Z,80.88
2022-12-18T10:30:49.554Z,80.92
2022-12-18T10:33:21.353Z,80.63
2022-12-18T10:35:52.258Z,80.54
2022-12-18T10:38:26.977Z,80.68
2022-12-18T10:41:01.954Z,80.76
2022-12-18T10:43:37.095Z,80.74
2022-12-18T10:46:18.292Z,80.56
2022-12-18T10:48:54.910Z,80.70
2022-12-18T10:51:31.357Z,80.36
2022-12-18T10:54:04.502Z,79.97
2022-12-18T10:56:38.046Z,80.53
2022-12-18T10:59:09.151Z,80.29
2022-12-18T11:01:59.777Z,80.66
2022-12-18T11:04:34.727Z,80.72
2022-12-18T11:07:05.946Z,80.46
2022-12-18T11:09:36.543Z,80.30
2022-12-18T11:12:15.910Z,80.03
2022-12-18T11:14:48.655Z,80.50
2022-12-18T11:17:25.553Z,80.12
2022-12-18T11:19:57.250Z,80.19
2022-12-18T11:22:28.656Z,80.29
2022-12-18T11:27:52.515Z,80.60
2022-12-18T11:30:27.147Z,80.81
2022-12-18T11:32:59.479Z,80.54
2022-12-18T11:35:48.761Z,81.06
2022-12-18T11:38:26.033Z,80.68
2022-12-18T11:41:03.346Z,80.84
2022-12-18T11:43:39.185Z,80.48
2022-12-18T11:46:20.025Z,80.34
2022-12-18T11:48:55.509Z,80.72
2022-12-18T11:51:29.566Z,79.71
2022-12-18T11:54:04.627Z,79.46
2022-12-18T11:56:36.961Z,79.55
2022-12-18T11:59:17.125Z,79.48
2022-12-18T12:01:52.991Z,79.52
2022-12-18T12:04:44.706Z,80.29
2022-12-18T12:07:26.006Z,79.95
2022-12-18T12:10:03.166Z,80.27
2022-12-18T12:12:49.163Z,80.12
2022-12-18T12:15:32.395Z,80.47
2022-12-18T12:18:20.024Z,80.03
2022-12-18T12:20:58.576Z,80.01
2022-12-18T12:23:43.148Z,79.89
2022-12-18T12:26:29.079Z,80.02
2022-12-18T12:29:10.524Z,79.72
2022-12-18T12:32:02.355Z,79.75
2022-12-18T12:34:40.315Z,79.64
2022-12-18T12:37:22.761Z,79.31
2022-12-18T12:39:56.022Z,79.38
2022-12-18T12:42:53.782Z,79.21
2022-12-18T12:45:32.385Z,79.44
2022-12-18T12:48:13.380Z,79.52
2022-12-18T12:51:00.422Z,79.27
2022-12-18T12:53:39.610Z,79.78
2022-12-18T12:56:12.355Z,79.92
2022-12-18T12:58:52.965Z,79.91
2022-12-18T13:01:33.895Z,79.80
2022-12-18T13:04:19.615Z,79.87
2022-12-18T13:06:57.824Z,79.66
2022-12-18T13:09:30.683Z,79.90
2022-12-18T13:12:29.526Z,79.98
2022-12-18T13:15:23.400Z,79.95
2022-12-18T13:18:22.235Z,79.86
2022-12-18T13:21:03.892Z,79.83
2022-12-18T13:23:41.391Z,79.93
2022-12-18T13:26:33.818Z,79.85
2022-12-18T13:29:06.433Z,80.34
2022-12-18T13:32:04.583Z,79.92
2022-12-18T13:34:34.006Z,79.86
2022-12-18T13:37:43.824Z,80.04
2022-12-18T13:40:55.316Z,79.94
2022-12-18T13:43:37.432Z,80.01
2022-12-18T13:46:23.195Z,79.92
2022-12-18T13:49:00.372Z,79.92
2022-12-18T13:51:32.655Z,79.72
2022-12-18T13:54:03.799Z,79.81
2022-12-18T13:56:34.954Z,79.78
2022-12-18T13:59:19.520Z,79.79
2022-12-18T14:01:59.133Z,79.66
2022-12-18T14:04:30.064Z,79.69
2022-12-18T14:07:04.074Z,79.53
2022-12-18T14:09:41.120Z,79.58
2022-12-18T14:12:44.756Z,79.84
2022-12-18T14:15:32.398Z,79.73
2022-12-18T14:18:20.837Z,79.69
2022-12-18T14:20:53.542Z,79.66
2022-12-18T14:23:31.642Z,79.74
2022-12-18T14:26:05.760Z,79.81
2022-12-18T14:28:48.323Z,79.86
2022-12-18T14:31:22.791Z,79.55
2022-12-18T14:33:52.607Z,79.56
2022-12-18T14:36:30.089Z,79.41
2022-12-18T14:39:00.440Z,79.74
2022-12-18T14:41:30.161Z,79.57
2022-12-18T14:44:08.386Z,79.82
2022-12-18T14:46:39.392Z,79.69
2022-12-18T14:49:27.097Z,79.99
2022-12-18T14:51:59.729Z,79.94
2022-12-18T14:54:31.153Z,79.88
2022-12-18T14:57:04.951Z,79.82
2022-12-18T14:59:36.731Z,79.75
2022-12-18T15:02:24.178Z,79.64
2022-12-18T15:05:13.100Z,79.79
2022-12-18T15:07:47.167Z,79.84
2022-12-18T15:10:21.883Z,80.01
2022-12-18T15:13:06.853Z,79.78
2022-12-18T15:15:50.516Z,79.78
2022-12-18T15:18:23.580Z,79.70
2022-12-18T15:20:55.720Z,79.70
2022-12-18T15:23:28.585Z,79.60
2022-12-18T15:25:59.943Z,79.66
2022-12-18T15:28:37.262Z,79.86
2022-12-18T15:31:24.861Z,79.85
2022-12-18T15:34:21.167Z,79.74
2022-12-18T15:36:52.781Z,79.89
2022-12-18T15:39:24.812Z,80.08
2022-12-18T15:42:26.520Z,79.84
2022-12-18T15:44:55.419Z,79.88
2022-12-18T15:47:24.559Z,79.73
2022-12-18T15:49:53.320Z,79.60
2022-12-18T15:52:26.462Z,79.70
2022-12-18T15:55:19.805Z,79.96
2022-12-18T15:57:55.049Z,79.84
2022-12-18T16:00:24.900Z,79.79
2022-12-18T16:02:54.280Z,79.92
2022-12-18T16:05:24.281Z,79.99
2022-12-18T16:07:53.082Z,79.60
2022-12-18T16:10:22.672Z,79.50
2022-12-18T16:12:52.020Z,79.72
2022-12-18T16:15:24.777Z,79.92
2022-12-18T16:17:54.059Z,79.62
2022-12-18T16:20:23.984Z,79.57
2022-12-18T16:22:53.652Z,79.81
2022-12-18T16:25:24.773Z,79.79
2022-12-18T16:27:55.579Z,79.92
2022-12-18T16:30:28.249Z,79.37
2022-12-18T16:32:59.049Z,79.30
2022-12-18T16:35:29.059Z,79.77
2022-12-18T16:37:58.601Z,79.42
2022-12-18T16:40:27.353Z,79.71
2022-12-18T16:42:56.388Z,79.92
2022-12-18T16:45:25.398Z,79.96
2022-12-18T16:47:54.266Z,79.70
2022-12-18T16:50:23.139Z,79.61
2022-12-18T16:52:57.136Z,79.56
2022-12-18T16:55:26.165Z,79.56
2022-12-18T16:57:55.475Z,79.71
2022-12-18T17:00:24.469Z,79.83
2022-12-18T17:02:54.322Z,79.68
2022-12-18T17:05:25.027Z,79.71
2022-12-18T17:07:54.199Z,79.42
2022-12-18T17:10:23.927Z,79.81
2022-12-18T17:12:54.066Z,79.69
2022-12-18T17:15:23.611Z,79.83
2022-12-18T17:17:53.669Z,79.66
2022-12-18T17:20:24.927Z,79.69
2022-12-18T17:22:54.887Z,79.69
2022-12-18T17:25:25.992Z,79.70
2022-12-18T17:27:56.217Z,79.61
2022-12-18T17:30:25.290Z,79.69
2022-12-18T17:32:54.504Z,79.55
2022-12-18T17:35:24.163Z,80.08
2022-12-18T17:37:58.585Z,79.81
2022-12-18T17:40:28.167Z,79.69
2022-12-18T17:42:57.271Z,79.70
2022-12-18T17:45:26.679Z,79.87
2022-12-18T17:47:59.826Z,79.58
2022-12-18T17:50:29.635Z,79.30
2022-12-18T17:53:00.264Z,79.27
2022-12-18T17:55:32.130Z,79.31
2022-12-18T17:58:01.615Z,79.34
2022-12-18T18:00:30.485Z,79.60
2022-12-18T18:02:59.493Z,79.58
2022-12-18T18:05:28.921Z,79.58
2022-12-18T18:07:58.390Z,79.64
2022-12-18T18:10:27.526Z,79.68
2022-12-18T18:13:15.248Z,79.66
2022-12-18T18:15:56.610Z,79.33
2022-12-18T18:18:26.604Z,79.69
2022-12-18T18:20:55.616Z,79.70
2022-12-18T18:23:28.219Z,79.83
2022-12-18T18:26:02.571Z,79.82
2022-12-18T18:28:32.882Z,79.73
2022-12-18T18:31:06.691Z,79.61
2022-12-18T18:33:36.225Z,79.39
2022-12-18T18:36:15.134Z,79.96
2022-12-18T18:38:48.391Z,79.84
2022-12-18T18:41:25.373Z,79.69
2022-12-18T18:43:57.035Z,79.50
2022-12-18T18:46:28.100Z,79.86
2022-12-18T18:48:56.970Z,79.86
2022-12-18T18:51:31.440Z,79.57
2022-12-18T18:54:07.271Z,79.95
2022-12-18T18:59:31.783Z,79.57
2022-12-18T19:02:04.228Z,79.63
2022-12-18T19:04:36.115Z,79.46
2022-12-18T19:07:07.112Z,79.33
2022-12-18T19:09:38.868Z,79.82
2022-12-18T19:12:27.410Z,79.67
2022-12-18T19:14:57.486Z,79.34
2022-12-18T19:17:31.478Z,79.57
2022-12-18T19:20:01.105Z,79.42
2022-12-18T19:22:30.491Z,80.03
2022-12-18T19:25:00.014Z,79.62
2022-12-18T19:27:29.243Z,79.54
2022-12-18T19:30:00.228Z,79.67
2022-12-18T19:32:29.487Z,80.17
2022-12-18T19:35:02.050Z,79.92
2022-12-18T19:37:32.468Z,79.80
2022-12-18T19:40:02.290Z,80.00
2022-12-18T19:42:40.972Z,79.75
2022-12-18T19:45:12.111Z,80.23
2022-12-18T19:50:26.036Z,80.09
2022-12-18T19:53:00.338Z,80.24
2022-12-18T19:55:30.116Z,79.77
2022-12-18T19:58:01.954Z,80.03
2022-12-18T20:00:30.850Z,80.07
2022-12-18T20:03:07.635Z,79.94
2022-12-18T20:05:46.491Z,80.14
2022-12-18T20:08:18.574Z,80.38
2022-12-18T20:10:50.196Z,80.27
2022-12-18T20:13:25.217Z,80.28
2022-12-18T20:15:56.977Z,79.99
2022-12-18T20:18:26.481Z,80.48
2022-12-18T20:20:55.529Z,80.41
2022-12-18T20:23:28.171Z,79.89
2022-12-18T20:25:57.660Z,80.17
2022-12-18T20:28:28.333Z,79.73
2022-12-18T20:31:02.411Z,79.90
2022-12-18T20:33:32.802Z,80.48
2022-12-18T20:36:05.421Z,80.42
2022-12-18T20:38:38.763Z,79.82
2022-12-18T20:41:23.542Z,80.05
2022-12-18T20:43:52.855Z,80.57
2022-12-18T20:46:21.805Z,80.44
2022-12-18T20:48:54.798Z,80.24
2022-12-18T20:51:26.213Z,80.50
2022-12-18T20:53:55.842Z,80.14
2022-12-18T20:56:26.747Z,80.44
2022-12-18T20:58:58.975Z,80.08
2022-12-18T21:01:29.868Z,80.31
2022-12-18T21:04:00.390Z,80.45
2022-12-18T21:06:30.167Z,80.04
2022-12-18T21:08:59.498Z,80.31
2022-12-18T21:11:50.846Z,79.82
2022-12-18T21:14:25.169Z,80.23
2022-12-18T21:16:55.785Z,80.35
2022-12-18T21:19:26.655Z,80.51
2022-12-18T21:21:57.458Z,80.46
2022-12-18T21:24:27.307Z,80.31
2022-12-18T21:27:03.124Z,80.47
2022-12-18T21:29:32.887Z,80.51
2022-12-18T21:32:04.051Z,80.64
2022-12-18T21:34:33.802Z,80.43
2022-12-18T21:37:03.100Z,80.01
2022-12-18T21:39:32.168Z,80.05
2022-12-18T21:42:20.284Z,80.49
2022-12-18T21:44:51.168Z,79.87
2022-12-18T21:47:22.678Z,80.29
2022-12-18T21:49:53.645Z,80.58
2022-12-18T21:52:31.695Z,80.48
2022-12-18T21:55:08.451Z,80.49
2022-12-18T21:57:40.156Z,79.97
2022-12-18T22:00:19.107Z,79.79
2022-12-18T22:02:59.929Z,80.46
2022-12-18T22:05:43.723Z,80.45
2022-12-18T22:08:15.086Z,80.26
2022-12-18T22:10:49.706Z,80.30
2022-12-18T22:13:19.629Z,80.59
2022-12-18T22:15:51.642Z,79.96
2022-12-18T22:18:21.048Z,80.12
2022-12-18T22:21:00.210Z,80.03
2022-12-18T22:23:32.748Z,80.04
2022-12-18T22:26:05.128Z,80.39
2022-12-18T22:29:02.757Z,79.99
2022-12-18T22:31:35.885Z,80.17
2022-12-18T22:34:05.630Z,80.24
2022-12-18T22:36:40.046Z,80.43
2022-12-18T22:39:22.302Z,80.18
2022-12-18T22:41:52.142Z,80.50
2022-12-18T22:44:26.483Z,80.60
2022-12-18T22:47:06.023Z,80.70
2022-12-18T22:49:36.344Z,80.52
2022-12-18T22:52:07.159Z,79.98
2022-12-18T22:54:36.490Z,80.30
2022-12-18T22:57:05.372Z,79.92
2022-12-18T22:59:35.693Z,80.67
2022-12-18T23:02:05.125Z,80.19
2022-12-18T23:04:49.810Z,80.29
2022-12-18T23:07:17.660Z,80.11
2022-12-18T23:09:48.356Z,80.05
2022-12-18T23:12:21.835Z,80.19
2022-12-18T23:14:51.011Z,79.92
2022-12-18T23:17:19.928Z,79.94
2022-12-18T23:19:49.376Z,80.22
2022-12-18T23:22:18.675Z,80.39
2022-12-18T23:24:49.535Z,79.93
2022-12-18T23:27:18.354Z,80.11
2022-12-18T23:29:47.260Z,80.27
2022-12-18T23:32:20.172Z,79.95
2022-12-18T23:34:49.271Z,80.48
2022-12-18T23:37:29.999Z,80.51
2022-12-18T23:40:05.883Z,80.39
2022-12-18T23:42:34.575Z,79.99
2022-12-18T23:45:04.853Z,79.76
2022-12-18T23:47:43.299Z,80.37
2022-12-18T23:50:15.076Z,80.14
2022-12-18T23:52:44.365Z,80.01
2022-12-18T23:55:15.771Z,79.99
2022-12-18T23:57:44.501Z,79.86
